Fishing Creek — WDJ3477 — position and weather

sailwx.info

Track history (hours):
 
Tides and Currents Weather Stations Pressure Air Temp Water Temp Dewpoint Dewpoint Depression Visibility Wind Speed Wind Dir Waves Ship Positions

Fishing Creek

Owner: Vane Line Bunkering, Inc., Philadelphia, PA. More information available from US FCC via Universal Licensing System and Coast Guard Vessel Documentation Center.

Last reported at 2018-Jul-16 14:30 UTC. Time now 2018-Jul-16 14:43 UTC.
Position N 39°54' W 075°12'.

Length 126 m; draft 25.5 m.

Type: Tug. MMSI: 368173000.

Date/timePositionNaut miles runAvg speedWind from/ knotsBaromVisibWave heightAir tempDewpointWater temp
2018-Jul-16 14:30N 39°54' W 075°12'0 0.0
2018-Jul-16 14:00N 39°54' W 075°12'0 0.0
2018-Jul-16 13:30N 39°54' W 075°12'0 0.0
2018-Jul-16 13:00N 39°54' W 075°12'0 0.0
2018-Jul-16 12:30N 39°54' W 075°12'0 0.0
2018-Jul-16 12:00N 39°54' W 075°12'0 0.0
2018-Jul-16 11:30N 39°54' W 075°12'0 0.1
2018-Jul-16 11:00N 39°54' W 075°12'1 1.3
2018-Jul-16 10:31N 39°54' W 075°12'0 0.0
2018-Jul-16 10:00N 39°54' W 075°12'0 0.0
2018-Jul-16 09:30N 39°54' W 075°12'0 0.0
2018-Jul-16 09:00N 39°54' W 075°12'0 0.0
2018-Jul-16 08:30N 39°54' W 075°12'0 0.0
2018-Jul-16 08:00N 39°54' W 075°12'0 0.0
2018-Jul-16 07:30N 39°54' W 075°12'0 0.0
2018-Jul-16 07:00N 39°54' W 075°12'0 0.0
2018-Jul-16 06:30N 39°54' W 075°12'0 0.0
2018-Jul-16 06:00N 39°54' W 075°12'0 0.0
2018-Jul-16 05:30N 39°54' W 075°12'2 3.5
2018-Jul-16 05:00N 39°52' W 075°13'2 3.9
2018-Jul-16 04:30N 39°51' W 075°15'0 0.2
2018-Jul-16 04:00N 39°51' W 075°15'3 5.7
2018-Jul-16 03:30N 39°53' W 075°12'1 1.8
2018-Jul-16 03:00N 39°54' W 075°12'1 1.2
2018-Jul-16 02:30N 39°53' W 075°12'0 0.0
2018-Jul-16 02:00N 39°53' W 075°12'0 0.0
2018-Jul-16 01:30N 39°53' W 075°12'0 0.0
2018-Jul-16 01:00N 39°53' W 075°12'0 0.0
2018-Jul-16 00:31N 39°53' W 075°12'0 0.0
2018-Jul-16 00:00N 39°53' W 075°12'0 0.0
2018-Jul-15 23:30N 39°53' W 075°12'0 0.0
2018-Jul-15 23:00N 39°53' W 075°12'0 0.0
2018-Jul-15 22:30N 39°53' W 075°12'0 0.4
2018-Jul-15 22:00N 39°53' W 075°12'3 5.2
2018-Jul-15 21:30N 39°54' W 075°08'1 1.7
2018-Jul-15 21:00N 39°53' W 075°09'3 5.4
2018-Jul-15 20:30N 39°54' W 075°12'0 0.1
2018-Jul-15 20:01N 39°54' W 075°12'0 0.0
2018-Jul-15 19:31N 39°54' W 075°12'0 0.0
2018-Jul-15 19:00N 39°54' W 075°12'0 0.2
2018-Jul-15 18:30N 39°54' W 075°12'0 0.0
2018-Jul-15 18:01N 39°54' W 075°12'0 0.0
2018-Jul-15 17:30N 39°54' W 075°12'0 0.0
2018-Jul-15 17:01N 39°54' W 075°12'0 0.0
2018-Jul-15 16:30N 39°54' W 075°12'0 0.0
2018-Jul-15 16:01N 39°54' W 075°12'0 0.0
2018-Jul-15 15:31N 39°54' W 075°12'0 0.0
2018-Jul-15 15:00N 39°54' W 075°12'0 0.0
2018-Jul-15 14:31N 39°54' W 075°12'0 0.0
2018-Jul-15 14:00N 39°54' W 075°12'0 0.0
2018-Jul-15 13:31N 39°54' W 075°12'0 0.0
2018-Jul-15 13:00N 39°54' W 075°12'0 0.0
2018-Jul-15 12:30N 39°54' W 075°12'1 1.2
2018-Jul-15 12:00N 39°53' W 075°12'0 0.0
2018-Jul-15 11:30N 39°53' W 075°12'0 0.0
2018-Jul-15 11:00N 39°53' W 075°12'0 0.0
2018-Jul-15 10:30N 39°53' W 075°12'0 0.0
2018-Jul-15 10:00N 39°53' W 075°12'0 0.0
2018-Jul-15 09:30N 39°53' W 075°12'0 0.0
2018-Jul-15 09:00N 39°53' W 075°12'0 0.0
2018-Jul-15 08:30N 39°53' W 075°12'0 0.0
2018-Jul-15 08:01N 39°53' W 075°12'3 5.3
2018-Jul-15 07:30N 39°52' W 075°14'2 3.4
2018-Jul-15 07:00N 39°51' W 075°16'1 2.0
2018-Jul-15 06:30N 39°51' W 075°15'3 6.8
2018-Jul-15 06:00N 39°53' W 075°12'0 0.0
2018-Jul-15 05:30N 39°53' W 075°12'0 0.0
2018-Jul-15 05:00N 39°53' W 075°12'0 0.0
2018-Jul-15 04:30N 39°53' W 075°12'0 0.0
2018-Jul-15 04:00N 39°53' W 075°12'0 0.0
2018-Jul-15 03:30N 39°53' W 075°12'0 0.0
2018-Jul-15 03:00N 39°53' W 075°12'0 0.0
2018-Jul-15 02:30N 39°53' W 075°12'0 0.0
2018-Jul-15 02:00N 39°53' W 075°12'0 0.0
2018-Jul-15 01:30N 39°53' W 075°12'0 0.0
2018-Jul-15 01:00N 39°53' W 075°12'0 0.0
2018-Jul-15 00:31N 39°53' W 075°12'0 0.0
2018-Jul-15 00:00N 39°53' W 075°12'0 0.0
2018-Jul-14 23:30N 39°53' W 075°12'0 0.0
2018-Jul-14 23:00N 39°53' W 075°12'0 0.0
2018-Jul-14 22:30N 39°53' W 075°12'0 0.0
2018-Jul-14 22:00N 39°53' W 075°12'0 0.0
2018-Jul-14 21:31N 39°53' W 075°12'0 0.0
2018-Jul-14 21:01N 39°53' W 075°12'1 1.2
2018-Jul-14 20:30N 39°54' W 075°12'1 1.4
2018-Jul-14 20:00N 39°53' W 075°12'4 7.9
2018-Jul-14 19:30N 39°51' W 075°16'4 8.8
2018-Jul-14 19:00N 39°50' W 075°22'2 4.7
2018-Jul-14 18:30N 39°49' W 075°24'0 0.0
2018-Jul-14 18:00N 39°49' W 075°24'0 0.0
2018-Jul-14 17:31N 39°49' W 075°24'0 0.0
2018-Jul-14 17:00N 39°49' W 075°24'0 0.0
2018-Jul-14 16:30N 39°49' W 075°24'0 0.0
2018-Jul-14 16:00N 39°49' W 075°24'0 0.0
2018-Jul-14 15:30N 39°49' W 075°24'0 0.0
2018-Jul-14 15:01N 39°49' W 075°24'0 0.0
2018-Jul-14 14:00N 39°49' W 075°24'0 0.0
2018-Jul-14 13:30N 39°49' W 075°24'0 0.0
2018-Jul-14 13:00N 39°49' W 075°24'0 0.0
2018-Jul-14 12:30N 39°49' W 075°24'0 0.0
2018-Jul-14 12:00N 39°49' W 075°24'0 0.0
2018-Jul-14 11:30N 39°49' W 075°24'0 0.0
2018-Jul-14 11:00N 39°49' W 075°24'0 0.0
2018-Jul-14 10:30N 39°49' W 075°24'0 0.1
2018-Jul-14 10:01N 39°49' W 075°24'1 2.6
2018-Jul-14 09:30N 39°50' W 075°23'5 9.9
2018-Jul-14 09:00N 39°51' W 075°16'4 8.6
2018-Jul-14 08:30N 39°53' W 075°12'0 0.6
2018-Jul-14 08:01N 39°54' W 075°12'0 0.2
2018-Jul-14 07:31N 39°53' W 075°12'0 0.0
2018-Jul-14 07:00N 39°53' W 075°12'0 0.0
2018-Jul-14 06:30N 39°53' W 075°12'0 0.0
2018-Jul-14 06:00N 39°53' W 075°12'0 0.0
2018-Jul-14 05:30N 39°53' W 075°12'0 0.0
2018-Jul-14 05:00N 39°53' W 075°12'0 0.0
2018-Jul-14 04:30N 39°53' W 075°12'0 0.0
2018-Jul-14 04:00N 39°53' W 075°12'0 0.0
2018-Jul-14 03:30N 39°53' W 075°12'0 0.0
2018-Jul-14 03:00N 39°53' W 075°12'0 0.0
2018-Jul-14 02:30N 39°53' W 075°12'0 0.0
2018-Jul-14 02:00N 39°53' W 075°12'0 0.0
2018-Jul-14 01:30N 39°53' W 075°12'0 0.0
2018-Jul-14 01:00N 39°53' W 075°12'0 0.0
2018-Jul-14 00:30N 39°53' W 075°12'0 0.0
2018-Jul-14 00:00N 39°53' W 075°12'0 0.0
2018-Jul-13 23:30N 39°53' W 075°12'0 0.0
2018-Jul-13 23:00N 39°53' W 075°12'0 0.0
2018-Jul-13 22:31N 39°53' W 075°12'0 0.2
2018-Jul-13 22:00N 39°54' W 075°12'0 0.2
2018-Jul-13 21:30N 39°53' W 075°12'1 1.5
2018-Jul-13 21:01N 39°53' W 075°11'3 5.4
2018-Jul-13 20:30N 39°54' W 075°08'0 0.1
2018-Jul-13 20:01N 39°54' W 075°08'0 0.0
2018-Jul-13 19:30N 39°54' W 075°08'0 0.0
2018-Jul-13 19:01N 39°54' W 075°08'0 0.0
2018-Jul-13 18:31N 39°54' W 075°08'0 0.0
2018-Jul-13 18:00N 39°54' W 075°08'0 0.0
2018-Jul-13 17:30N 39°54' W 075°08'0 0.0
2018-Jul-13 17:01N 39°54' W 075°08'0 0.2
2018-Jul-13 16:30N 39°54' W 075°08'3 6.0
2018-Jul-13 16:00N 39°53' W 075°12'0 0.6
2018-Jul-13 15:30N 39°54' W 075°12'0 0.0
2018-Jul-13 15:01N 39°54' W 075°12'0 0.0
2018-Jul-13 14:00N 39°54' W 075°12'0 0.0
2018-Jul-13 13:30N 39°54' W 075°12'0 0.0
2018-Jul-13 13:00N 39°54' W 075°12'0 0.0
2018-Jul-13 12:30N 39°54' W 075°12'0 0.0
2018-Jul-13 12:00N 39°54' W 075°12'0 0.0
2018-Jul-13 11:31N 39°54' W 075°12'0 0.0
2018-Jul-13 11:00N 39°54' W 075°12'0 0.0
2018-Jul-13 10:30N 39°54' W 075°12'0 0.0
2018-Jul-13 10:00N 39°54' W 075°12'0 0.0
2018-Jul-13 09:30N 39°54' W 075°12'0 0.0
2018-Jul-13 09:00N 39°54' W 075°12'0 0.0
2018-Jul-13 08:30N 39°54' W 075°12'0 0.0
2018-Jul-13 08:00N 39°54' W 075°12'0 0.0
2018-Jul-13 07:30N 39°54' W 075°12'0 0.0
2018-Jul-13 07:00N 39°54' W 075°12'0 0.0
2018-Jul-13 06:30N 39°54' W 075°12'0 0.0
2018-Jul-13 06:00N 39°54' W 075°12'0 0.0
2018-Jul-13 05:30N 39°54' W 075°12'0 0.0
2018-Jul-13 05:00N 39°54' W 075°12'0 0.0
2018-Jul-13 04:30N 39°54' W 075°12'0 0.0
2018-Jul-13 04:00N 39°54' W 075°12'0 0.0
2018-Jul-13 03:30N 39°54' W 075°12'0 0.0
2018-Jul-13 03:00N 39°54' W 075°12'0 0.0
2018-Jul-13 02:30N 39°54' W 075°12'0 0.0
2018-Jul-13 02:00N 39°54' W 075°12'0 0.0
2018-Jul-13 01:30N 39°54' W 075°12'0 0.0
2018-Jul-13 01:00N 39°54' W 075°12'0 0.0
2018-Jul-13 00:30N 39°54' W 075°12'0 0.0
2018-Jul-13 00:01N 39°54' W 075°12'0 0.0
2018-Jul-12 23:30N 39°54' W 075°12'0 0.0
2018-Jul-12 23:01N 39°54' W 075°12'0 0.9
2018-Jul-12 22:30N 39°54' W 075°12'0 0.9
2018-Jul-12 22:01N 39°54' W 075°12'0 0.0
2018-Jul-12 21:30N 39°54' W 075°12'0 0.0
2018-Jul-12 21:01N 39°54' W 075°12'0 0.0
2018-Jul-12 20:30N 39°54' W 075°12'0 0.0
2018-Jul-12 20:00N 39°54' W 075°12'0 0.0
2018-Jul-12 19:30N 39°54' W 075°12'0 0.4
2018-Jul-12 19:01N 39°54' W 075°12'0 0.5
2018-Jul-12 18:31N 39°54' W 075°12'0 0.8
2018-Jul-12 18:01N 39°54' W 075°12'0 0.0
2018-Jul-12 17:30N 39°54' W 075°12'0 0.0
2018-Jul-12 17:00N 39°54' W 075°12'0 0.0
2018-Jul-12 16:30N 39°54' W 075°12'0 0.1
2018-Jul-12 16:01N 39°54' W 075°12'0 0.0
2018-Jul-12 15:30N 39°54' W 075°12'0 0.0
2018-Jul-12 15:00N 39°54' W 075°12'0 0.0
2018-Jul-12 14:30N 39°54' W 075°12'0 0.0
2018-Jul-12 14:01N 39°54' W 075°12'0 0.0
2018-Jul-12 13:30N 39°54' W 075°12'0 0.0
2018-Jul-12 13:00N 39°54' W 075°12'0 0.0
2018-Jul-12 12:30N 39°54' W 075°12'0 0.0
2018-Jul-12 12:00N 39°54' W 075°12'0 0.0
2018-Jul-12 11:30N 39°54' W 075°12'0 0.1
2018-Jul-12 11:00N 39°54' W 075°12'0 0.0
2018-Jul-12 10:30N 39°54' W 075°12'0 0.0
2018-Jul-12 10:00N 39°54' W 075°12'0 0.0
2018-Jul-12 09:30N 39°54' W 075°12'0 0.0
2018-Jul-12 09:00N 39°54' W 075°12'0 0.0
2018-Jul-12 08:30N 39°54' W 075°12'0 0.0
2018-Jul-12 08:00N 39°54' W 075°12'0 0.0
2018-Jul-12 07:30N 39°54' W 075°12'0 0.0
2018-Jul-12 07:00N 39°54' W 075°12'0 0.0
2018-Jul-12 06:30N 39°54' W 075°12'0 0.0
2018-Jul-12 06:00N 39°54' W 075°12'0 0.0
2018-Jul-12 05:30N 39°54' W 075°12'0 0.1
2018-Jul-12 05:00N 39°54' W 075°12'0 0.1
2018-Jul-12 04:30N 39°54' W 075°12'0 0.0
2018-Jul-12 04:00N 39°54' W 075°12'0 0.0
2018-Jul-12 03:30N 39°54' W 075°12'0 0.0
2018-Jul-12 03:00N 39°54' W 075°12'0 0.0
2018-Jul-12 02:30N 39°54' W 075°12'0 0.1
2018-Jul-12 02:01N 39°53' W 075°12'2 3.3
2018-Jul-12 01:30N 39°52' W 075°13'4 7.8
2018-Jul-12 01:00N 39°51' W 075°18'510.4
2018-Jul-12 00:30N 39°49' W 075°24'1 2.0
2018-Jul-12 00:00N 39°48' W 075°25'0 0.0
2018-Jul-11 23:30N 39°48' W 075°25'0 0.5
2018-Jul-11 23:00N 39°48' W 075°25'0 0.1
2018-Jul-11 22:31N 39°48' W 075°25'0 0.0
2018-Jul-11 22:00N 39°48' W 075°25'0 0.0
2018-Jul-11 21:31N 39°48' W 075°25'0 0.0
2018-Jul-11 21:00N 39°48' W 075°25'0 0.0
2018-Jul-11 20:31N 39°48' W 075°25'0 0.0
2018-Jul-11 20:01N 39°48' W 075°25'0 0.0
2018-Jul-11 19:31N 39°48' W 075°25'0 0.0
2018-Jul-11 19:00N 39°48' W 075°25'0 0.1
2018-Jul-11 18:30N 39°48' W 075°25'0 0.1
2018-Jul-11 18:00N 39°48' W 075°25'2 4.2
2018-Jul-11 17:28N 39°49' W 075°23'4 7.8
2018-Jul-11 17:00N 39°51' W 075°18'4 7.3
2018-Jul-11 16:31N 39°52' W 075°14'2 4.9
2018-Jul-11 16:00N 39°53' W 075°12'0 0.2
2018-Jul-11 15:30N 39°54' W 075°12'0 0.0
2018-Jul-11 15:01N 39°54' W 075°12'0 0.0
2018-Jul-11 14:31N 39°53' W 075°12'0 0.1
2018-Jul-11 14:00N 39°54' W 075°12'0 0.3
2018-Jul-11 13:31N 39°53' W 075°12'1 1.2
2018-Jul-11 13:00N 39°54' W 075°12'1 1.2
2018-Jul-11 12:30N 39°53' W 075°12'0 0.0
2018-Jul-11 12:00N 39°53' W 075°12'0 0.0
2018-Jul-11 11:30N 39°53' W 075°12'0 0.0
2018-Jul-11 11:00N 39°53' W 075°12'0 0.0
2018-Jul-11 10:30N 39°53' W 075°12'0 0.0
2018-Jul-11 10:00N 39°53' W 075°12'0 0.0
2018-Jul-11 09:30N 39°53' W 075°12'2 3.3
2018-Jul-11 09:00N 39°53' W 075°10'4 7.6
2018-Jul-11 08:30N 39°57' W 075°08'4 7.7
2018-Jul-11 08:01N 39°59' W 075°04'0 0.1
2018-Jul-11 07:30N 39°59' W 075°04'0 0.0
2018-Jul-11 07:00N 39°59' W 075°04'1 1.1
2018-Jul-11 06:30N 39°59' W 075°05'0 0.0
2018-Jul-11 06:00N 39°59' W 075°05'0 0.0
2018-Jul-11 05:30N 39°59' W 075°05'0 0.0
2018-Jul-11 05:00N 39°59' W 075°05'0 0.0
2018-Jul-11 04:30N 39°59' W 075°05'0 0.0
2018-Jul-11 04:00N 39°59' W 075°05'0 0.0
2018-Jul-11 03:30N 39°59' W 075°05'0 0.0
2018-Jul-11 03:00N 39°59' W 075°05'0 0.0
2018-Jul-11 02:30N 39°59' W 075°05'0 0.0
2018-Jul-11 02:00N 39°59' W 075°05'0 0.0
2018-Jul-11 01:30N 39°59' W 075°05'0 0.0
2018-Jul-11 01:00N 39°59' W 075°05'0 0.0
2018-Jul-11 00:30N 39°59' W 075°05'0 0.0
2018-Jul-11 00:00N 39°59' W 075°05'0 0.0
2018-Jul-10 23:31N 39°59' W 075°05'0 0.0
2018-Jul-10 22:59N 39°59' W 075°05'0 0.0
2018-Jul-10 22:31N 39°59' W 075°05'0 0.0
2018-Jul-10 22:00N 39°59' W 075°05'0 0.0
2018-Jul-10 21:30N 39°59' W 075°05'0 0.0
2018-Jul-10 21:00N 39°59' W 075°05'0 0.0
2018-Jul-10 20:30N 39°59' W 075°05'1 1.1
2018-Jul-10 20:01N 39°59' W 075°04'1 1.4
2018-Jul-10 19:30N 39°59' W 075°05'3 5.9
2018-Jul-10 19:00N 39°57' W 075°08'3 6.1
2018-Jul-10 18:30N 39°54' W 075°08'3 6.0
2018-Jul-10 18:01N 39°53' W 075°12'2 4.8
2018-Jul-10 17:30N 39°51' W 075°14'3 5.5
2018-Jul-10 17:00N 39°53' W 075°12'0 0.4
2018-Jul-10 16:30N 39°53' W 075°12'0 0.0
2018-Jul-10 16:00N 39°53' W 075°12'0 0.2
2018-Jul-10 15:30N 39°54' W 075°12'0 1.0
2018-Jul-10 15:00N 39°54' W 075°12'0 0.2
2018-Jul-10 14:30N 39°54' W 075°12'2 4.0
2018-Jul-10 14:00N 39°52' W 075°13'0 0.5
2018-Jul-10 13:30N 39°52' W 075°13'5 9.2
2018-Jul-10 13:00N 39°51' W 075°19'510.3
2018-Jul-10 12:30N 39°48' W 075°25'510.2
2018-Jul-10 12:00N 39°45' W 075°30'510.0
2018-Jul-10 11:30N 39°40' W 075°32'4 8.7
2018-Jul-10 11:00N 39°36' W 075°34'1 2.4
2018-Jul-10 10:30N 39°35' W 075°35'1 1.5
2018-Jul-10 10:00N 39°35' W 075°36'0 0.0
2018-Jul-10 09:30N 39°35' W 075°36'0 0.0
2018-Jul-10 09:00N 39°35' W 075°36'0 0.0
2018-Jul-10 08:30N 39°35' W 075°36'0 0.0
2018-Jul-10 08:00N 39°35' W 075°36'0 0.0
2018-Jul-10 07:30N 39°35' W 075°36'0 0.0
2018-Jul-10 07:00N 39°35' W 075°36'0 0.0
2018-Jul-10 06:30N 39°35' W 075°36'0 0.0
2018-Jul-10 06:00N 39°35' W 075°36'0 0.0
2018-Jul-10 05:30N 39°35' W 075°36'0 0.0
2018-Jul-10 04:59N 39°35' W 075°36'0 0.0
2018-Jul-10 04:30N 39°35' W 075°36'0 0.0
2018-Jul-10 04:00N 39°35' W 075°36'0 0.0
2018-Jul-10 03:30N 39°35' W 075°36'0 0.0
2018-Jul-10 03:00N 39°35' W 075°36'0 0.0
2018-Jul-10 02:30N 39°35' W 075°36'0 0.0
2018-Jul-10 02:00N 39°35' W 075°36'0 0.0
2018-Jul-10 01:30N 39°35' W 075°36'0 0.0
2018-Jul-10 01:00N 39°35' W 075°36'0 0.8
2018-Jul-10 00:30N 39°35' W 075°35'2 3.8
2018-Jul-10 00:00N 39°34' W 075°33'1 2.0
2018-Jul-09 23:31N 39°35' W 075°33'1 2.9
2018-Jul-09 23:00N 39°36' W 075°34'2 3.2
2018-Jul-09 22:30N 39°38' W 075°34'3 5.9
2018-Jul-09 22:00N 39°40' W 075°32'3 6.8
2018-Jul-09 21:31N 39°43' W 075°30'4 8.3
2018-Jul-09 21:01N 39°47' W 075°28'5 9.2
2018-Jul-09 20:30N 39°50' W 075°23'5 9.4
2018-Jul-09 20:00N 39°51' W 075°17'5 9.0
2018-Jul-09 19:30N 39°53' W 075°12'0 0.5
2018-Jul-09 19:00N 39°54' W 075°12'0 0.1
2018-Jul-09 18:31N 39°54' W 075°12'0 0.0
2018-Jul-09 18:00N 39°54' W 075°12'0 0.0
2018-Jul-09 17:30N 39°54' W 075°12'0 0.0
2018-Jul-09 17:00N 39°54' W 075°12'0 0.0
2018-Jul-09 16:30N 39°54' W 075°12'0 0.0
2018-Jul-09 16:00N 39°54' W 075°12'0 0.5
2018-Jul-09 15:30N 39°54' W 075°12'0 0.9
2018-Jul-09 15:00N 39°54' W 075°12'0 0.2
2018-Jul-09 14:30N 39°54' W 075°12'0 0.0
2018-Jul-09 14:00N 39°54' W 075°12'0 0.0
2018-Jul-09 13:30N 39°54' W 075°12'0 0.0
2018-Jul-09 13:00N 39°54' W 075°12'0 0.1
2018-Jul-09 12:30N 39°54' W 075°12'0 0.1
2018-Jul-09 12:00N 39°54' W 075°12'0 0.0
2018-Jul-09 11:30N 39°54' W 075°12'0 0.6
2018-Jul-09 11:01N 39°54' W 075°12'0 0.7
2018-Jul-09 10:31N 39°53' W 075°12'0 0.0
2018-Jul-09 10:00N 39°53' W 075°12'0 0.0
2018-Jul-09 09:30N 39°53' W 075°12'0 0.0
2018-Jul-09 09:00N 39°53' W 075°12'0 0.0
2018-Jul-09 08:30N 39°53' W 075°12'0 0.0
2018-Jul-09 08:00N 39°53' W 075°12'0 0.0
2018-Jul-09 07:30N 39°53' W 075°12'0 0.0
2018-Jul-09 07:00N 39°54' W 075°12'0 0.0
2018-Jul-09 06:30N 39°54' W 075°12'0 0.0
2018-Jul-09 06:00N 39°53' W 075°12'0 0.0
2018-Jul-09 05:30N 39°54' W 075°12'0 0.0
2018-Jul-09 05:00N 39°53' W 075°12'1 1.7
2018-Jul-09 04:30N 39°53' W 075°12'4 7.1
2018-Jul-09 04:00N 39°51' W 075°16'4 7.6
2018-Jul-09 03:30N 39°50' W 075°21'3 5.5
2018-Jul-09 03:00N 39°49' W 075°24'0 0.1
2018-Jul-09 02:30N 39°49' W 075°24'0 0.0
2018-Jul-09 02:00N 39°49' W 075°24'0 0.0
2018-Jul-09 01:30N 39°49' W 075°24'0 0.0
2018-Jul-09 01:00N 39°49' W 075°24'0 0.0
2018-Jul-09 00:30N 39°49' W 075°24'0 0.2
2018-Jul-09 00:00N 39°49' W 075°24'0 0.4
2018-Jul-08 23:30N 39°49' W 075°24'0 0.0
2018-Jul-08 23:00N 39°49' W 075°24'0 0.0
2018-Jul-08 22:30N 39°49' W 075°24'0 0.0
2018-Jul-08 22:01N 39°49' W 075°24'0 0.0
2018-Jul-08 21:30N 39°48' W 075°24'0 0.2
2018-Jul-08 21:01N 39°49' W 075°24'0 0.3
2018-Jul-08 20:31N 39°48' W 075°24'3 5.8
2018-Jul-08 20:00N 39°47' W 075°27'4 7.7
2018-Jul-08 19:31N 39°44' W 075°30'4 7.3
2018-Jul-08 19:00N 39°40' W 075°32'3 6.8
2018-Jul-08 18:30N 39°38' W 075°34'3 6.7
2018-Jul-08 18:00N 39°35' W 075°33'2 3.8
2018-Jul-08 17:29N 39°33' W 075°33'0 0.0
2018-Jul-08 17:00N 39°33' W 075°33'0 0.0
2018-Jul-08 16:31N 39°33' W 075°33'0 0.0
2018-Jul-08 16:01N 39°33' W 075°33'0 0.0
2018-Jul-08 15:30N 39°33' W 075°33'0 0.0
2018-Jul-08 14:59N 39°33' W 075°33'0 0.0
2018-Jul-08 14:30N 39°33' W 075°33'0 0.0
2018-Jul-08 13:59N 39°33' W 075°33'1 1.6
2018-Jul-08 13:31N 39°33' W 075°33'4 8.8
2018-Jul-08 13:01N 39°37' W 075°35'4 8.3
2018-Jul-08 12:31N 39°41' W 075°31'4 7.5
2018-Jul-08 12:00N 39°44' W 075°30'3 6.3
2018-Jul-08 11:30N 39°47' W 075°28'4 7.2
2018-Jul-08 11:00N 39°49' W 075°24'3 6.8
2018-Jul-08 10:30N 39°51' W 075°20'3 6.9
2018-Jul-08 10:00N 39°51' W 075°16'4 7.5
2018-Jul-08 09:30N 39°53' W 075°12'0 0.4
2018-Jul-08 09:00N 39°53' W 075°12'0 0.1
2018-Jul-08 08:30N 39°53' W 075°12'0 0.0
2018-Jul-08 08:00N 39°53' W 075°12'0 0.0
2018-Jul-08 07:30N 39°53' W 075°12'0 0.0
2018-Jul-08 07:00N 39°53' W 075°12'0 0.0
2018-Jul-08 06:31N 39°53' W 075°12'0 0.0
2018-Jul-08 06:00N 39°53' W 075°12'0 0.0
2018-Jul-08 05:31N 39°53' W 075°12'0 0.0
2018-Jul-08 05:00N 39°53' W 075°12'0 0.0
2018-Jul-08 04:31N 39°53' W 075°12'0 0.0
2018-Jul-08 04:01N 39°53' W 075°12'0 0.0
2018-Jul-08 03:31N 39°53' W 075°12'0 0.0
2018-Jul-08 03:00N 39°53' W 075°12'0 0.0
2018-Jul-08 02:30N 39°53' W 075°12'0 0.0
2018-Jul-08 02:01N 39°53' W 075°12'0 0.0
2018-Jul-08 01:30N 39°53' W 075°12'0 0.0
2018-Jul-08 01:01N 39°53' W 075°12'0 0.0
2018-Jul-08 00:30N 39°53' W 075°12'0 0.0
2018-Jul-08 00:01N 39°53' W 075°12'1 1.1
2018-Jul-07 23:31N 39°54' W 075°12'0 0.1
2018-Jul-07 23:00N 39°54' W 075°12'0 0.1
2018-Jul-07 22:31N 39°54' W 075°12'1 1.3
2018-Jul-07 22:01N 39°54' W 075°12'0 0.0
2018-Jul-07 21:31N 39°54' W 075°12'0 0.0
2018-Jul-07 21:00N 39°54' W 075°12'0 0.0
2018-Jul-07 20:30N 39°54' W 075°12'0 0.0
2018-Jul-07 20:01N 39°54' W 075°12'0 0.0
2018-Jul-07 19:31N 39°54' W 075°12'0 0.0
2018-Jul-07 19:00N 39°54' W 075°12'0 0.0
2018-Jul-07 18:30N 39°54' W 075°12'0 0.0
2018-Jul-07 18:00N 39°54' W 075°12'0 0.0
2018-Jul-07 17:31N 39°54' W 075°12'0 0.0
2018-Jul-07 17:00N 39°54' W 075°12'0 0.0
2018-Jul-07 16:30N 39°54' W 075°12'0 0.0
2018-Jul-07 16:00N 39°54' W 075°12'0 0.0
2018-Jul-07 15:30N 39°54' W 075°12'0 0.0
2018-Jul-07 15:00N 39°54' W 075°12'0 0.0
2018-Jul-07 14:31N 39°54' W 075°12'0 0.0
2018-Jul-07 14:00N 39°54' W 075°12'0 0.0
2018-Jul-07 13:30N 39°54' W 075°12'0 0.0
2018-Jul-07 13:00N 39°54' W 075°12'0 0.0
2018-Jul-07 12:30N 39°54' W 075°12'1 1.2
2018-Jul-07 12:00N 39°54' W 075°12'2 3.2
2018-Jul-07 11:30N 39°52' W 075°13'3 5.8
2018-Jul-07 11:01N 39°51' W 075°16'1 2.7
2018-Jul-07 10:31N 39°51' W 075°15'3 6.0
2018-Jul-07 10:01N 39°54' W 075°12'1 1.0
2018-Jul-07 09:30N 39°54' W 075°12'0 0.0
2018-Jul-07 09:00N 39°54' W 075°12'0 0.0
2018-Jul-07 08:30N 39°54' W 075°12'0 0.0
2018-Jul-07 08:00N 39°54' W 075°12'0 0.0
2018-Jul-07 07:30N 39°54' W 075°12'0 0.0
2018-Jul-07 07:00N 39°54' W 075°12'0 0.0
2018-Jul-07 06:31N 39°54' W 075°12'0 0.0
2018-Jul-07 06:00N 39°54' W 075°12'0 0.5
2018-Jul-07 05:31N 39°53' W 075°12'3 6.9
2018-Jul-07 05:01N 39°51' W 075°15'0 0.0
2018-Jul-07 04:30N 39°51' W 075°15'1 2.2
2018-Jul-07 04:00N 39°51' W 075°14'0 0.4
2018-Jul-07 03:31N 39°51' W 075°14'2 4.0
2018-Jul-07 03:01N 39°53' W 075°12'1 1.7
2018-Jul-07 02:30N 39°53' W 075°12'0 0.0
2018-Jul-07 02:00N 39°53' W 075°12'0 0.0
2018-Jul-07 01:30N 39°53' W 075°12'0 0.0
2018-Jul-07 01:00N 39°53' W 075°12'0 0.0
2018-Jul-07 00:30N 39°53' W 075°12'0 0.0
2018-Jul-07 00:00N 39°53' W 075°12'0 0.0
2018-Jul-06 23:30N 39°53' W 075°12'0 0.0
2018-Jul-06 23:01N 39°53' W 075°12'0 0.0
2018-Jul-06 22:30N 39°53' W 075°12'0 0.0
2018-Jul-06 22:00N 39°53' W 075°12'0 0.0
2018-Jul-06 21:30N 39°53' W 075°12'0 0.0
2018-Jul-06 21:01N 39°53' W 075°12'0 0.0
2018-Jul-06 20:30N 39°53' W 075°12'0 0.0
2018-Jul-06 20:00N 39°54' W 075°12'0 0.0
2018-Jul-06 19:30N 39°54' W 075°12'0 0.0
2018-Jul-06 19:01N 39°54' W 075°12'0 0.0
2018-Jul-06 18:31N 39°54' W 075°12'2 3.9
2018-Jul-06 18:01N 39°52' W 075°13'0 0.9
2018-Jul-06 17:31N 39°52' W 075°14'2 4.2
2018-Jul-06 17:01N 39°54' W 075°12'2 3.7
2018-Jul-06 16:30N 39°52' W 075°13'2 4.6
2018-Jul-06 16:01N 39°51' W 075°16'0 0.3
2018-Jul-06 15:31N 39°51' W 075°16'4 8.4
2018-Jul-06 15:01N 39°53' W 075°12'  
Track history (hours):
 
Tides and Currents Weather Stations Pressure Air Temp Water Temp Dewpoint Dewpoint Depression Visibility Wind Speed Wind Dir Waves Ship Positions

Fishing Creek

Owner: Vane Line Bunkering, Inc., Philadelphia, PA. More information available from US FCC via Universal Licensing System and Coast Guard Vessel Documentation Center.

Last reported at 2018-Jul-16 14:30 UTC. Time now 2018-Jul-16 14:43 UTC.
Position N 39°54' W 075°12'.

Length 126 m; draft 25.5 m.

Type: Tug. MMSI: 368173000.

Date/timePositionNaut miles runAvg speedWind from/ knotsBaromVisibWave heightAir tempDewpointWater temp
2018-Jul-16 14:30N 39°54' W 075°12'0 0.0
2018-Jul-16 14:00N 39°54' W 075°12'0 0.0
2018-Jul-16 13:30N 39°54' W 075°12'0 0.0
2018-Jul-16 13:00N 39°54' W 075°12'0 0.0
2018-Jul-16 12:30N 39°54' W 075°12'0 0.0
2018-Jul-16 12:00N 39°54' W 075°12'0 0.0
2018-Jul-16 11:30N 39°54' W 075°12'0 0.1
2018-Jul-16 11:00N 39°54' W 075°12'1 1.3
2018-Jul-16 10:31N 39°54' W 075°12'0 0.0
2018-Jul-16 10:00N 39°54' W 075°12'0 0.0
2018-Jul-16 09:30N 39°54' W 075°12'0 0.0
2018-Jul-16 09:00N 39°54' W 075°12'0 0.0
2018-Jul-16 08:30N 39°54' W 075°12'0 0.0
2018-Jul-16 08:00N 39°54' W 075°12'0 0.0
2018-Jul-16 07:30N 39°54' W 075°12'0 0.0
2018-Jul-16 07:00N 39°54' W 075°12'0 0.0
2018-Jul-16 06:30N 39°54' W 075°12'0 0.0
2018-Jul-16 06:00N 39°54' W 075°12'0 0.0
2018-Jul-16 05:30N 39°54' W 075°12'2 3.5
2018-Jul-16 05:00N 39°52' W 075°13'2 3.9
2018-Jul-16 04:30N 39°51' W 075°15'0 0.2
2018-Jul-16 04:00N 39°51' W 075°15'3 5.7
2018-Jul-16 03:30N 39°53' W 075°12'1 1.8
2018-Jul-16 03:00N 39°54' W 075°12'1 1.2
2018-Jul-16 02:30N 39°53' W 075°12'0 0.0
2018-Jul-16 02:00N 39°53' W 075°12'0 0.0
2018-Jul-16 01:30N 39°53' W 075°12'0 0.0
2018-Jul-16 01:00N 39°53' W 075°12'0 0.0
2018-Jul-16 00:31N 39°53' W 075°12'0 0.0
2018-Jul-16 00:00N 39°53' W 075°12'0 0.0
2018-Jul-15 23:30N 39°53' W 075°12'0 0.0
2018-Jul-15 23:00N 39°53' W 075°12'0 0.0
2018-Jul-15 22:30N 39°53' W 075°12'0 0.4
2018-Jul-15 22:00N 39°53' W 075°12'3 5.2
2018-Jul-15 21:30N 39°54' W 075°08'1 1.7
2018-Jul-15 21:00N 39°53' W 075°09'3 5.4
2018-Jul-15 20:30N 39°54' W 075°12'0 0.1
2018-Jul-15 20:01N 39°54' W 075°12'0 0.0
2018-Jul-15 19:31N 39°54' W 075°12'0 0.0
2018-Jul-15 19:00N 39°54' W 075°12'0 0.2
2018-Jul-15 18:30N 39°54' W 075°12'0 0.0
2018-Jul-15 18:01N 39°54' W 075°12'0 0.0
2018-Jul-15 17:30N 39°54' W 075°12'0 0.0
2018-Jul-15 17:01N 39°54' W 075°12'0 0.0
2018-Jul-15 16:30N 39°54' W 075°12'0 0.0
2018-Jul-15 16:01N 39°54' W 075°12'0 0.0
2018-Jul-15 15:31N 39°54' W 075°12'0 0.0
2018-Jul-15 15:00N 39°54' W 075°12'0 0.0
2018-Jul-15 14:31N 39°54' W 075°12'0 0.0
2018-Jul-15 14:00N 39°54' W 075°12'0 0.0
2018-Jul-15 13:31N 39°54' W 075°12'0 0.0
2018-Jul-15 13:00N 39°54' W 075°12'0 0.0
2018-Jul-15 12:30N 39°54' W 075°12'1 1.2
2018-Jul-15 12:00N 39°53' W 075°12'0 0.0
2018-Jul-15 11:30N 39°53' W 075°12'0 0.0
2018-Jul-15 11:00N 39°53' W 075°12'0 0.0
2018-Jul-15 10:30N 39°53' W 075°12'0 0.0
2018-Jul-15 10:00N 39°53' W 075°12'0 0.0
2018-Jul-15 09:30N 39°53' W 075°12'0 0.0
2018-Jul-15 09:00N 39°53' W 075°12'0 0.0
2018-Jul-15 08:30N 39°53' W 075°12'0 0.0
2018-Jul-15 08:01N 39°53' W 075°12'3 5.3
2018-Jul-15 07:30N 39°52' W 075°14'2 3.4
2018-Jul-15 07:00N 39°51' W 075°16'1 2.0
2018-Jul-15 06:30N 39°51' W 075°15'3 6.8
2018-Jul-15 06:00N 39°53' W 075°12'0 0.0
2018-Jul-15 05:30N 39°53' W 075°12'0 0.0
2018-Jul-15 05:00N 39°53' W 075°12'0 0.0
2018-Jul-15 04:30N 39°53' W 075°12'0 0.0
2018-Jul-15 04:00N 39°53' W 075°12'0 0.0
2018-Jul-15 03:30N 39°53' W 075°12'0 0.0
2018-Jul-15 03:00N 39°53' W 075°12'0 0.0
2018-Jul-15 02:30N 39°53' W 075°12'0 0.0
2018-Jul-15 02:00N 39°53' W 075°12'0 0.0
2018-Jul-15 01:30N 39°53' W 075°12'0 0.0
2018-Jul-15 01:00N 39°53' W 075°12'0 0.0
2018-Jul-15 00:31N 39°53' W 075°12'0 0.0
2018-Jul-15 00:00N 39°53' W 075°12'0 0.0
2018-Jul-14 23:30N 39°53' W 075°12'0 0.0
2018-Jul-14 23:00N 39°53' W 075°12'0 0.0
2018-Jul-14 22:30N 39°53' W 075°12'0 0.0
2018-Jul-14 22:00N 39°53' W 075°12'0 0.0
2018-Jul-14 21:31N 39°53' W 075°12'0 0.0
2018-Jul-14 21:01N 39°53' W 075°12'1 1.2
2018-Jul-14 20:30N 39°54' W 075°12'1 1.4
2018-Jul-14 20:00N 39°53' W 075°12'4 7.9
2018-Jul-14 19:30N 39°51' W 075°16'4 8.8
2018-Jul-14 19:00N 39°50' W 075°22'2 4.7
2018-Jul-14 18:30N 39°49' W 075°24'0 0.0
2018-Jul-14 18:00N 39°49' W 075°24'0 0.0
2018-Jul-14 17:31N 39°49' W 075°24'0 0.0
2018-Jul-14 17:00N 39°49' W 075°24'0 0.0
2018-Jul-14 16:30N 39°49' W 075°24'0 0.0
2018-Jul-14 16:00N 39°49' W 075°24'0 0.0
2018-Jul-14 15:30N 39°49' W 075°24'0 0.0
2018-Jul-14 15:01N 39°49' W 075°24'0 0.0
2018-Jul-14 14:00N 39°49' W 075°24'0 0.0
2018-Jul-14 13:30N 39°49' W 075°24'0 0.0
2018-Jul-14 13:00N 39°49' W 075°24'0 0.0
2018-Jul-14 12:30N 39°49' W 075°24'0 0.0
2018-Jul-14 12:00N 39°49' W 075°24'0 0.0
2018-Jul-14 11:30N 39°49' W 075°24'0 0.0
2018-Jul-14 11:00N 39°49' W 075°24'0 0.0
2018-Jul-14 10:30N 39°49' W 075°24'0 0.1
2018-Jul-14 10:01N 39°49' W 075°24'1 2.6
2018-Jul-14 09:30N 39°50' W 075°23'5 9.9
2018-Jul-14 09:00N 39°51' W 075°16'4 8.6
2018-Jul-14 08:30N 39°53' W 075°12'0 0.6
2018-Jul-14 08:01N 39°54' W 075°12'0 0.2
2018-Jul-14 07:31N 39°53' W 075°12'0 0.0
2018-Jul-14 07:00N 39°53' W 075°12'0 0.0
2018-Jul-14 06:30N 39°53' W 075°12'0 0.0
2018-Jul-14 06:00N 39°53' W 075°12'0 0.0
2018-Jul-14 05:30N 39°53' W 075°12'0 0.0
2018-Jul-14 05:00N 39°53' W 075°12'0 0.0
2018-Jul-14 04:30N 39°53' W 075°12'0 0.0
2018-Jul-14 04:00N 39°53' W 075°12'0 0.0
2018-Jul-14 03:30N 39°53' W 075°12'0 0.0
2018-Jul-14 03:00N 39°53' W 075°12'0 0.0
2018-Jul-14 02:30N 39°53' W 075°12'0 0.0
2018-Jul-14 02:00N 39°53' W 075°12'0 0.0
2018-Jul-14 01:30N 39°53' W 075°12'0 0.0
2018-Jul-14 01:00N 39°53' W 075°12'0 0.0
2018-Jul-14 00:30N 39°53' W 075°12'0 0.0
2018-Jul-14 00:00N 39°53' W 075°12'0 0.0
2018-Jul-13 23:30N 39°53' W 075°12'0 0.0
2018-Jul-13 23:00N 39°53' W 075°12'0 0.0
2018-Jul-13 22:31N 39°53' W 075°12'0 0.2
2018-Jul-13 22:00N 39°54' W 075°12'0 0.2
2018-Jul-13 21:30N 39°53' W 075°12'1 1.5
2018-Jul-13 21:01N 39°53' W 075°11'3 5.4
2018-Jul-13 20:30N 39°54' W 075°08'0 0.1
2018-Jul-13 20:01N 39°54' W 075°08'0 0.0
2018-Jul-13 19:30N 39°54' W 075°08'0 0.0
2018-Jul-13 19:01N 39°54' W 075°08'0 0.0
2018-Jul-13 18:31N 39°54' W 075°08'0 0.0
2018-Jul-13 18:00N 39°54' W 075°08'0 0.0
2018-Jul-13 17:30N 39°54' W 075°08'0 0.0
2018-Jul-13 17:01N 39°54' W 075°08'0 0.2
2018-Jul-13 16:30N 39°54' W 075°08'3 6.0
2018-Jul-13 16:00N 39°53' W 075°12'0 0.6
2018-Jul-13 15:30N 39°54' W 075°12'0 0.0
2018-Jul-13 15:01N 39°54' W 075°12'0 0.0
2018-Jul-13 14:00N 39°54' W 075°12'0 0.0
2018-Jul-13 13:30N 39°54' W 075°12'0 0.0
2018-Jul-13 13:00N 39°54' W 075°12'0 0.0
2018-Jul-13 12:30N 39°54' W 075°12'0 0.0
2018-Jul-13 12:00N 39°54' W 075°12'0 0.0
2018-Jul-13 11:31N 39°54' W 075°12'0 0.0
2018-Jul-13 11:00N 39°54' W 075°12'0 0.0
2018-Jul-13 10:30N 39°54' W 075°12'0 0.0
2018-Jul-13 10:00N 39°54' W 075°12'0 0.0
2018-Jul-13 09:30N 39°54' W 075°12'0 0.0
2018-Jul-13 09:00N 39°54' W 075°12'0 0.0
2018-Jul-13 08:30N 39°54' W 075°12'0 0.0
2018-Jul-13 08:00N 39°54' W 075°12'0 0.0
2018-Jul-13 07:30N 39°54' W 075°12'0 0.0
2018-Jul-13 07:00N 39°54' W 075°12'0 0.0
2018-Jul-13 06:30N 39°54' W 075°12'0 0.0
2018-Jul-13 06:00N 39°54' W 075°12'0 0.0
2018-Jul-13 05:30N 39°54' W 075°12'0 0.0
2018-Jul-13 05:00N 39°54' W 075°12'0 0.0
2018-Jul-13 04:30N 39°54' W 075°12'0 0.0
2018-Jul-13 04:00N 39°54' W 075°12'0 0.0
2018-Jul-13 03:30N 39°54' W 075°12'0 0.0
2018-Jul-13 03:00N 39°54' W 075°12'0 0.0
2018-Jul-13 02:30N 39°54' W 075°12'0 0.0
2018-Jul-13 02:00N 39°54' W 075°12'0 0.0
2018-Jul-13 01:30N 39°54' W 075°12'0 0.0
2018-Jul-13 01:00N 39°54' W 075°12'0 0.0
2018-Jul-13 00:30N 39°54' W 075°12'0 0.0
2018-Jul-13 00:01N 39°54' W 075°12'0 0.0
2018-Jul-12 23:30N 39°54' W 075°12'0 0.0
2018-Jul-12 23:01N 39°54' W 075°12'0 0.9
2018-Jul-12 22:30N 39°54' W 075°12'0 0.9
2018-Jul-12 22:01N 39°54' W 075°12'0 0.0
2018-Jul-12 21:30N 39°54' W 075°12'0 0.0
2018-Jul-12 21:01N 39°54' W 075°12'0 0.0
2018-Jul-12 20:30N 39°54' W 075°12'0 0.0
2018-Jul-12 20:00N 39°54' W 075°12'0 0.0
2018-Jul-12 19:30N 39°54' W 075°12'0 0.4
2018-Jul-12 19:01N 39°54' W 075°12'0 0.5
2018-Jul-12 18:31N 39°54' W 075°12'0 0.8
2018-Jul-12 18:01N 39°54' W 075°12'0 0.0
2018-Jul-12 17:30N 39°54' W 075°12'0 0.0
2018-Jul-12 17:00N 39°54' W 075°12'0 0.0
2018-Jul-12 16:30N 39°54' W 075°12'0 0.1
2018-Jul-12 16:01N 39°54' W 075°12'0 0.0
2018-Jul-12 15:30N 39°54' W 075°12'0 0.0
2018-Jul-12 15:00N 39°54' W 075°12'0 0.0
2018-Jul-12 14:30N 39°54' W 075°12'0 0.0
2018-Jul-12 14:01N 39°54' W 075°12'0 0.0
2018-Jul-12 13:30N 39°54' W 075°12'0 0.0
2018-Jul-12 13:00N 39°54' W 075°12'0 0.0
2018-Jul-12 12:30N 39°54' W 075°12'0 0.0
2018-Jul-12 12:00N 39°54' W 075°12'0 0.0
2018-Jul-12 11:30N 39°54' W 075°12'0 0.1
2018-Jul-12 11:00N 39°54' W 075°12'0 0.0
2018-Jul-12 10:30N 39°54' W 075°12'0 0.0
2018-Jul-12 10:00N 39°54' W 075°12'0 0.0
2018-Jul-12 09:30N 39°54' W 075°12'0 0.0
2018-Jul-12 09:00N 39°54' W 075°12'0 0.0
2018-Jul-12 08:30N 39°54' W 075°12'0 0.0
2018-Jul-12 08:00N 39°54' W 075°12'0 0.0
2018-Jul-12 07:30N 39°54' W 075°12'0 0.0
2018-Jul-12 07:00N 39°54' W 075°12'0 0.0
2018-Jul-12 06:30N 39°54' W 075°12'0 0.0
2018-Jul-12 06:00N 39°54' W 075°12'0 0.0
2018-Jul-12 05:30N 39°54' W 075°12'0 0.1
2018-Jul-12 05:00N 39°54' W 075°12'0 0.1
2018-Jul-12 04:30N 39°54' W 075°12'0 0.0
2018-Jul-12 04:00N 39°54' W 075°12'0 0.0
2018-Jul-12 03:30N 39°54' W 075°12'0 0.0
2018-Jul-12 03:00N 39°54' W 075°12'0 0.0
2018-Jul-12 02:30N 39°54' W 075°12'0 0.1
2018-Jul-12 02:01N 39°53' W 075°12'2 3.3
2018-Jul-12 01:30N 39°52' W 075°13'4 7.8
2018-Jul-12 01:00N 39°51' W 075°18'510.4
2018-Jul-12 00:30N 39°49' W 075°24'1 2.0
2018-Jul-12 00:00N 39°48' W 075°25'0 0.0
2018-Jul-11 23:30N 39°48' W 075°25'0 0.5
2018-Jul-11 23:00N 39°48' W 075°25'0 0.1
2018-Jul-11 22:31N 39°48' W 075°25'0 0.0
2018-Jul-11 22:00N 39°48' W 075°25'0 0.0
2018-Jul-11 21:31N 39°48' W 075°25'0 0.0
2018-Jul-11 21:00N 39°48' W 075°25'0 0.0
2018-Jul-11 20:31N 39°48' W 075°25'0 0.0
2018-Jul-11 20:01N 39°48' W 075°25'0 0.0
2018-Jul-11 19:31N 39°48' W 075°25'0 0.0
2018-Jul-11 19:00N 39°48' W 075°25'0 0.1
2018-Jul-11 18:30N 39°48' W 075°25'0 0.1
2018-Jul-11 18:00N 39°48' W 075°25'2 4.2
2018-Jul-11 17:28N 39°49' W 075°23'4 7.8
2018-Jul-11 17:00N 39°51' W 075°18'4 7.3
2018-Jul-11 16:31N 39°52' W 075°14'2 4.9
2018-Jul-11 16:00N 39°53' W 075°12'0 0.2
2018-Jul-11 15:30N 39°54' W 075°12'0 0.0
2018-Jul-11 15:01N 39°54' W 075°12'0 0.0
2018-Jul-11 14:31N 39°53' W 075°12'0 0.1
2018-Jul-11 14:00N 39°54' W 075°12'0 0.3
2018-Jul-11 13:31N 39°53' W 075°12'1 1.2
2018-Jul-11 13:00N 39°54' W 075°12'1 1.2
2018-Jul-11 12:30N 39°53' W 075°12'0 0.0
2018-Jul-11 12:00N 39°53' W 075°12'0 0.0
2018-Jul-11 11:30N 39°53' W 075°12'0 0.0
2018-Jul-11 11:00N 39°53' W 075°12'0 0.0
2018-Jul-11 10:30N 39°53' W 075°12'0 0.0
2018-Jul-11 10:00N 39°53' W 075°12'0 0.0
2018-Jul-11 09:30N 39°53' W 075°12'2 3.3
2018-Jul-11 09:00N 39°53' W 075°10'4 7.6
2018-Jul-11 08:30N 39°57' W 075°08'4 7.7
2018-Jul-11 08:01N 39°59' W 075°04'0 0.1
2018-Jul-11 07:30N 39°59' W 075°04'0 0.0
2018-Jul-11 07:00N 39°59' W 075°04'1 1.1
2018-Jul-11 06:30N 39°59' W 075°05'0 0.0
2018-Jul-11 06:00N 39°59' W 075°05'0 0.0
2018-Jul-11 05:30N 39°59' W 075°05'0 0.0
2018-Jul-11 05:00N 39°59' W 075°05'0 0.0
2018-Jul-11 04:30N 39°59' W 075°05'0 0.0
2018-Jul-11 04:00N 39°59' W 075°05'0 0.0
2018-Jul-11 03:30N 39°59' W 075°05'0 0.0
2018-Jul-11 03:00N 39°59' W 075°05'0 0.0
2018-Jul-11 02:30N 39°59' W 075°05'0 0.0
2018-Jul-11 02:00N 39°59' W 075°05'0 0.0
2018-Jul-11 01:30N 39°59' W 075°05'0 0.0
2018-Jul-11 01:00N 39°59' W 075°05'0 0.0
2018-Jul-11 00:30N 39°59' W 075°05'0 0.0
2018-Jul-11 00:00N 39°59' W 075°05'0 0.0
2018-Jul-10 23:31N 39°59' W 075°05'0 0.0
2018-Jul-10 22:59N 39°59' W 075°05'0 0.0
2018-Jul-10 22:31N 39°59' W 075°05'0 0.0
2018-Jul-10 22:00N 39°59' W 075°05'0 0.0
2018-Jul-10 21:30N 39°59' W 075°05'0 0.0
2018-Jul-10 21:00N 39°59' W 075°05'0 0.0
2018-Jul-10 20:30N 39°59' W 075°05'1 1.1
2018-Jul-10 20:01N 39°59' W 075°04'1 1.4
2018-Jul-10 19:30N 39°59' W 075°05'3 5.9
2018-Jul-10 19:00N 39°57' W 075°08'3 6.1
2018-Jul-10 18:30N 39°54' W 075°08'3 6.0
2018-Jul-10 18:01N 39°53' W 075°12'2 4.8
2018-Jul-10 17:30N 39°51' W 075°14'3 5.5
2018-Jul-10 17:00N 39°53' W 075°12'0 0.4
2018-Jul-10 16:30N 39°53' W 075°12'0 0.0
2018-Jul-10 16:00N 39°53' W 075°12'0 0.2
2018-Jul-10 15:30N 39°54' W 075°12'0 1.0
2018-Jul-10 15:00N 39°54' W 075°12'0 0.2
2018-Jul-10 14:30N 39°54' W 075°12'2 4.0
2018-Jul-10 14:00N 39°52' W 075°13'0 0.5
2018-Jul-10 13:30N 39°52' W 075°13'5 9.2
2018-Jul-10 13:00N 39°51' W 075°19'510.3
2018-Jul-10 12:30N 39°48' W 075°25'510.2
2018-Jul-10 12:00N 39°45' W 075°30'510.0
2018-Jul-10 11:30N 39°40' W 075°32'4 8.7
2018-Jul-10 11:00N 39°36' W 075°34'1 2.4
2018-Jul-10 10:30N 39°35' W 075°35'1 1.5
2018-Jul-10 10:00N 39°35' W 075°36'0 0.0
2018-Jul-10 09:30N 39°35' W 075°36'0 0.0
2018-Jul-10 09:00N 39°35' W 075°36'0 0.0
2018-Jul-10 08:30N 39°35' W 075°36'0 0.0
2018-Jul-10 08:00N 39°35' W 075°36'0 0.0
2018-Jul-10 07:30N 39°35' W 075°36'0 0.0
2018-Jul-10 07:00N 39°35' W 075°36'0 0.0
2018-Jul-10 06:30N 39°35' W 075°36'0 0.0
2018-Jul-10 06:00N 39°35' W 075°36'0 0.0
2018-Jul-10 05:30N 39°35' W 075°36'0 0.0
2018-Jul-10 04:59N 39°35' W 075°36'0 0.0
2018-Jul-10 04:30N 39°35' W 075°36'0 0.0
2018-Jul-10 04:00N 39°35' W 075°36'0 0.0
2018-Jul-10 03:30N 39°35' W 075°36'0 0.0
2018-Jul-10 03:00N 39°35' W 075°36'0 0.0
2018-Jul-10 02:30N 39°35' W 075°36'0 0.0
2018-Jul-10 02:00N 39°35' W 075°36'0 0.0
2018-Jul-10 01:30N 39°35' W 075°36'0 0.0
2018-Jul-10 01:00N 39°35' W 075°36'0 0.8
2018-Jul-10 00:30N 39°35' W 075°35'2 3.8
2018-Jul-10 00:00N 39°34' W 075°33'1 2.0
2018-Jul-09 23:31N 39°35' W 075°33'1 2.9
2018-Jul-09 23:00N 39°36' W 075°34'2 3.2
2018-Jul-09 22:30N 39°38' W 075°34'3 5.9
2018-Jul-09 22:00N 39°40' W 075°32'3 6.8
2018-Jul-09 21:31N 39°43' W 075°30'4 8.3
2018-Jul-09 21:01N 39°47' W 075°28'5 9.2
2018-Jul-09 20:30N 39°50' W 075°23'5 9.4
2018-Jul-09 20:00N 39°51' W 075°17'5 9.0
2018-Jul-09 19:30N 39°53' W 075°12'0 0.5
2018-Jul-09 19:00N 39°54' W 075°12'0 0.1
2018-Jul-09 18:31N 39°54' W 075°12'0 0.0
2018-Jul-09 18:00N 39°54' W 075°12'0 0.0
2018-Jul-09 17:30N 39°54' W 075°12'0 0.0
2018-Jul-09 17:00N 39°54' W 075°12'0 0.0
2018-Jul-09 16:30N 39°54' W 075°12'0 0.0
2018-Jul-09 16:00N 39°54' W 075°12'0 0.5
2018-Jul-09 15:30N 39°54' W 075°12'0 0.9
2018-Jul-09 15:00N 39°54' W 075°12'0 0.2
2018-Jul-09 14:30N 39°54' W 075°12'0 0.0
2018-Jul-09 14:00N 39°54' W 075°12'0 0.0
2018-Jul-09 13:30N 39°54' W 075°12'0 0.0
2018-Jul-09 13:00N 39°54' W 075°12'0 0.1
2018-Jul-09 12:30N 39°54' W 075°12'0 0.1
2018-Jul-09 12:00N 39°54' W 075°12'0 0.0
2018-Jul-09 11:30N 39°54' W 075°12'0 0.6
2018-Jul-09 11:01N 39°54' W 075°12'0 0.7
2018-Jul-09 10:31N 39°53' W 075°12'0 0.0
2018-Jul-09 10:00N 39°53' W 075°12'0 0.0
2018-Jul-09 09:30N 39°53' W 075°12'0 0.0
2018-Jul-09 09:00N 39°53' W 075°12'0 0.0
2018-Jul-09 08:30N 39°53' W 075°12'0 0.0
2018-Jul-09 08:00N 39°53' W 075°12'0 0.0
2018-Jul-09 07:30N 39°53' W 075°12'0 0.0
2018-Jul-09 07:00N 39°54' W 075°12'0 0.0
2018-Jul-09 06:30N 39°54' W 075°12'0 0.0
2018-Jul-09 06:00N 39°53' W 075°12'0 0.0
2018-Jul-09 05:30N 39°54' W 075°12'0 0.0
2018-Jul-09 05:00N 39°53' W 075°12'1 1.7
2018-Jul-09 04:30N 39°53' W 075°12'4 7.1
2018-Jul-09 04:00N 39°51' W 075°16'4 7.6
2018-Jul-09 03:30N 39°50' W 075°21'3 5.5
2018-Jul-09 03:00N 39°49' W 075°24'0 0.1
2018-Jul-09 02:30N 39°49' W 075°24'0 0.0
2018-Jul-09 02:00N 39°49' W 075°24'0 0.0
2018-Jul-09 01:30N 39°49' W 075°24'0 0.0
2018-Jul-09 01:00N 39°49' W 075°24'0 0.0
2018-Jul-09 00:30N 39°49' W 075°24'0 0.2
2018-Jul-09 00:00N 39°49' W 075°24'0 0.4
2018-Jul-08 23:30N 39°49' W 075°24'0 0.0
2018-Jul-08 23:00N 39°49' W 075°24'0 0.0
2018-Jul-08 22:30N 39°49' W 075°24'0 0.0
2018-Jul-08 22:01N 39°49' W 075°24'0 0.0
2018-Jul-08 21:30N 39°48' W 075°24'0 0.2
2018-Jul-08 21:01N 39°49' W 075°24'0 0.3
2018-Jul-08 20:31N 39°48' W 075°24'3 5.8
2018-Jul-08 20:00N 39°47' W 075°27'4 7.7
2018-Jul-08 19:31N 39°44' W 075°30'4 7.3
2018-Jul-08 19:00N 39°40' W 075°32'3 6.8
2018-Jul-08 18:30N 39°38' W 075°34'3 6.7
2018-Jul-08 18:00N 39°35' W 075°33'2 3.8
2018-Jul-08 17:29N 39°33' W 075°33'0 0.0
2018-Jul-08 17:00N 39°33' W 075°33'0 0.0
2018-Jul-08 16:31N 39°33' W 075°33'0 0.0
2018-Jul-08 16:01N 39°33' W 075°33'0 0.0
2018-Jul-08 15:30N 39°33' W 075°33'0 0.0
2018-Jul-08 14:59N 39°33' W 075°33'0 0.0
2018-Jul-08 14:30N 39°33' W 075°33'0 0.0
2018-Jul-08 13:59N 39°33' W 075°33'1 1.6
2018-Jul-08 13:31N 39°33' W 075°33'4 8.8
2018-Jul-08 13:01N 39°37' W 075°35'4 8.3
2018-Jul-08 12:31N 39°41' W 075°31'4 7.5
2018-Jul-08 12:00N 39°44' W 075°30'3 6.3
2018-Jul-08 11:30N 39°47' W 075°28'4 7.2
2018-Jul-08 11:00N 39°49' W 075°24'3 6.8
2018-Jul-08 10:30N 39°51' W 075°20'3 6.9
2018-Jul-08 10:00N 39°51' W 075°16'4 7.5
2018-Jul-08 09:30N 39°53' W 075°12'0 0.4
2018-Jul-08 09:00N 39°53' W 075°12'0 0.1
2018-Jul-08 08:30N 39°53' W 075°12'0 0.0
2018-Jul-08 08:00N 39°53' W 075°12'0 0.0
2018-Jul-08 07:30N 39°53' W 075°12'0 0.0
2018-Jul-08 07:00N 39°53' W 075°12'0 0.0
2018-Jul-08 06:31N 39°53' W 075°12'0 0.0
2018-Jul-08 06:00N 39°53' W 075°12'0 0.0
2018-Jul-08 05:31N 39°53' W 075°12'0 0.0
2018-Jul-08 05:00N 39°53' W 075°12'0 0.0
2018-Jul-08 04:31N 39°53' W 075°12'0 0.0
2018-Jul-08 04:01N 39°53' W 075°12'0 0.0
2018-Jul-08 03:31N 39°53' W 075°12'0 0.0
2018-Jul-08 03:00N 39°53' W 075°12'0 0.0
2018-Jul-08 02:30N 39°53' W 075°12'0 0.0
2018-Jul-08 02:01N 39°53' W 075°12'0 0.0
2018-Jul-08 01:30N 39°53' W 075°12'0 0.0
2018-Jul-08 01:01N 39°53' W 075°12'0 0.0
2018-Jul-08 00:30N 39°53' W 075°12'0 0.0
2018-Jul-08 00:01N 39°53' W 075°12'1 1.1
2018-Jul-07 23:31N 39°54' W 075°12'0 0.1
2018-Jul-07 23:00N 39°54' W 075°12'0 0.1
2018-Jul-07 22:31N 39°54' W 075°12'1 1.3
2018-Jul-07 22:01N 39°54' W 075°12'0 0.0
2018-Jul-07 21:31N 39°54' W 075°12'0 0.0
2018-Jul-07 21:00N 39°54' W 075°12'0 0.0
2018-Jul-07 20:30N 39°54' W 075°12'0 0.0
2018-Jul-07 20:01N 39°54' W 075°12'0 0.0
2018-Jul-07 19:31N 39°54' W 075°12'0 0.0
2018-Jul-07 19:00N 39°54' W 075°12'0 0.0
2018-Jul-07 18:30N 39°54' W 075°12'0 0.0
2018-Jul-07 18:00N 39°54' W 075°12'0 0.0
2018-Jul-07 17:31N 39°54' W 075°12'0 0.0
2018-Jul-07 17:00N 39°54' W 075°12'0 0.0
2018-Jul-07 16:30N 39°54' W 075°12'0 0.0
2018-Jul-07 16:00N 39°54' W 075°12'0 0.0
2018-Jul-07 15:30N 39°54' W 075°12'0 0.0
2018-Jul-07 15:00N 39°54' W 075°12'0 0.0
2018-Jul-07 14:31N 39°54' W 075°12'0 0.0
2018-Jul-07 14:00N 39°54' W 075°12'0 0.0
2018-Jul-07 13:30N 39°54' W 075°12'0 0.0
2018-Jul-07 13:00N 39°54' W 075°12'0 0.0
2018-Jul-07 12:30N 39°54' W 075°12'1 1.2
2018-Jul-07 12:00N 39°54' W 075°12'2 3.2
2018-Jul-07 11:30N 39°52' W 075°13'3 5.8
2018-Jul-07 11:01N 39°51' W 075°16'1 2.7
2018-Jul-07 10:31N 39°51' W 075°15'3 6.0
2018-Jul-07 10:01N 39°54' W 075°12'1 1.0
2018-Jul-07 09:30N 39°54' W 075°12'0 0.0
2018-Jul-07 09:00N 39°54' W 075°12'0 0.0
2018-Jul-07 08:30N 39°54' W 075°12'0 0.0
2018-Jul-07 08:00N 39°54' W 075°12'0 0.0
2018-Jul-07 07:30N 39°54' W 075°12'0 0.0
2018-Jul-07 07:00N 39°54' W 075°12'0 0.0
2018-Jul-07 06:31N 39°54' W 075°12'0 0.0
2018-Jul-07 06:00N 39°54' W 075°12'0 0.5
2018-Jul-07 05:31N 39°53' W 075°12'3 6.9
2018-Jul-07 05:01N 39°51' W 075°15'0 0.0
2018-Jul-07 04:30N 39°51' W 075°15'1 2.2
2018-Jul-07 04:00N 39°51' W 075°14'0 0.4
2018-Jul-07 03:31N 39°51' W 075°14'2 4.0
2018-Jul-07 03:01N 39°53' W 075°12'1 1.7
2018-Jul-07 02:30N 39°53' W 075°12'0 0.0
2018-Jul-07 02:00N 39°53' W 075°12'0 0.0
2018-Jul-07 01:30N 39°53' W 075°12'0 0.0
2018-Jul-07 01:00N 39°53' W 075°12'0 0.0
2018-Jul-07 00:30N 39°53' W 075°12'0 0.0
2018-Jul-07 00:00N 39°53' W 075°12'0 0.0
2018-Jul-06 23:30N 39°53' W 075°12'0 0.0
2018-Jul-06 23:01N 39°53' W 075°12'0 0.0
2018-Jul-06 22:30N 39°53' W 075°12'0 0.0
2018-Jul-06 22:00N 39°53' W 075°12'0 0.0
2018-Jul-06 21:30N 39°53' W 075°12'0 0.0
2018-Jul-06 21:01N 39°53' W 075°12'0 0.0
2018-Jul-06 20:30N 39°53' W 075°12'0 0.0
2018-Jul-06 20:00N 39°54' W 075°12'0 0.0
2018-Jul-06 19:30N 39°54' W 075°12'0 0.0
2018-Jul-06 19:01N 39°54' W 075°12'0 0.0
2018-Jul-06 18:31N 39°54' W 075°12'2 3.9
2018-Jul-06 18:01N 39°52' W 075°13'0 0.9
2018-Jul-06 17:31N 39°52' W 075°14'2 4.2
2018-Jul-06 17:01N 39°54' W 075°12'2 3.7
2018-Jul-06 16:30N 39°52' W 075°13'2 4.6
2018-Jul-06 16:01N 39°51' W 075°16'0 0.3
2018-Jul-06 15:31N 39°51' W 075°16'4 8.4
2018-Jul-06 15:01N 39°53' W 075°12'  

Dump ship's entire track history